createdAt,value
2019-01-09T00:00:24.059Z,100578.92
2019-01-09T00:02:59.428Z,100584.20
2019-01-09T00:05:32.426Z,100583.66
2019-01-09T00:08:02.279Z,100578.49
2019-01-09T00:10:32.718Z,100593.36
2019-01-09T00:13:02.642Z,100601.41
2019-01-09T00:15:33.969Z,100614.75
2019-01-09T00:18:13.850Z,100594.64
2019-01-09T00:20:47.314Z,100615.38
2019-01-09T00:23:22.339Z,100623.30
2019-01-09T00:25:55.141Z,100628.52
2019-01-09T00:28:28.958Z,100623.00
2019-01-09T00:31:00.477Z,100622.27
2019-01-09T00:33:34.206Z,100636.83
2019-01-09T00:36:12.612Z,100643.14
2019-01-09T00:38:49.557Z,100646.78
2019-01-09T00:41:24.054Z,100659.61
2019-01-09T00:44:01.838Z,100656.38
2019-01-09T00:46:33.344Z,100660.81
2019-01-09T00:49:12.772Z,100665.08
2019-01-09T00:51:44.308Z,100663.20
2019-01-09T00:54:14.129Z,100679.41
2019-01-09T00:56:45.730Z,100672.54
2019-01-09T00:59:18.496Z,100682.78
2019-01-09T01:01:53.148Z,100671.30
2019-01-09T01:04:26.176Z,100692.14
2019-01-09T01:07:17.318Z,100685.88
2019-01-09T01:10:11.025Z,100697.56
2019-01-09T01:12:49.445Z,100702.59
2019-01-09T01:15:46.166Z,100709.30
2019-01-09T01:18:24.086Z,100708.91
2019-01-09T01:20:59.941Z,100712.53
2019-01-09T01:23:41.623Z,100722.73
2019-01-09T01:26:17.129Z,100723.53
2019-01-09T01:28:56.018Z,100729.33
2019-01-09T01:31:58.081Z,100728.48
2019-01-09T01:35:04.702Z,100740.14
2019-01-09T01:37:52.584Z,100735.87
2019-01-09T01:40:40.746Z,100766.94
2019-01-09T01:43:13.733Z,100746.11
2019-01-09T01:46:04.970Z,100753.42
2019-01-09T01:48:54.541Z,100747.14
2019-01-09T01:51:33.166Z,100763.25
2019-01-09T01:54:24.094Z,100771.05
2019-01-09T01:57:14.565Z,100763.56
2019-01-09T01:59:58.210Z,100774.54
2019-01-09T02:02:53.087Z,100770.96
2019-01-09T02:05:34.680Z,100791.78
2019-01-09T02:08:13.565Z,100771.31
2019-01-09T02:11:16.163Z,100776.59
2019-01-09T02:14:04.660Z,100780.97
2019-01-09T02:16:44.588Z,100780.88
2019-01-09T02:19:41.133Z,100811.37
2019-01-09T02:22:31.543Z,100789.55
2019-01-09T02:25:04.569Z,100806.06
2019-01-09T02:27:40.480Z,100818.34
2019-01-09T02:30:37.467Z,100807.72
2019-01-09T02:33:10.904Z,100815.92
2019-01-09T02:35:43.400Z,100826.92
2019-01-09T02:38:16.312Z,100827.53
2019-01-09T02:40:45.976Z,100837.90
2019-01-09T02:43:15.938Z,100828.62
2019-01-09T02:45:56.670Z,100828.81
2019-01-09T02:48:29.899Z,100817.35
2019-01-09T02:51:04.379Z,100833.52
2019-01-09T02:53:34.172Z,100838.23
2019-01-09T02:56:07.627Z,100826.14
2019-01-09T02:58:42.245Z,100840.47
2019-01-09T03:01:12.202Z,100832.45
2019-01-09T03:03:42.159Z,100843.81
2019-01-09T03:06:22.706Z,100839.98
2019-01-09T03:08:47.105Z,100837.23
2019-01-09T03:11:17.205Z,100837.23
2019-01-09T03:13:52.373Z,100837.83
2019-01-09T03:16:26.786Z,100815.63
2019-01-09T03:19:00.022Z,100851.39
2019-01-09T03:21:30.191Z,100818.45
2019-01-09T03:24:01.965Z,100853.48
2019-01-09T03:26:34.338Z,100865.09
2019-01-09T03:29:04.237Z,100868.80
2019-01-09T03:31:34.039Z,100864.16
2019-01-09T03:34:04.200Z,100859.72
2019-01-09T03:36:36.818Z,100868.98
2019-01-09T03:39:07.239Z,100871.89
2019-01-09T03:41:38.628Z,100884.25
2019-01-09T03:44:11.231Z,100882.16
2019-01-09T03:46:42.081Z,100876.73
2019-01-09T03:49:14.341Z,100876.91
2019-01-09T03:51:47.634Z,100885.10
2019-01-09T03:54:17.395Z,100877.41
2019-01-09T03:56:50.340Z,100889.75
2019-01-09T03:59:22.253Z,100889.89
2019-01-09T04:01:52.127Z,100889.48
2019-01-09T04:04:22.416Z,100907.34
2019-01-09T04:06:52.498Z,100894.68
2019-01-09T04:09:22.138Z,100911.69
2019-01-09T04:11:54.164Z,100903.18
2019-01-09T04:14:23.768Z,100890.83
2019-01-09T04:16:53.357Z,100912.89
2019-01-09T04:19:22.920Z,100913.16
2019-01-09T04:21:54.153Z,100917.58
2019-01-09T04:24:24.326Z,100920.63
2019-01-09T04:26:54.190Z,100927.66
2019-01-09T04:29:24.062Z,100922.42
2019-01-09T04:31:53.888Z,100925.91
2019-01-09T04:34:24.907Z,100932.27
2019-01-09T04:36:54.595Z,100929.14
2019-01-09T04:39:26.462Z,100925.37
2019-01-09T04:41:56.365Z,100938.13
2019-01-09T04:44:25.959Z,100930.08
2019-01-09T04:46:55.624Z,100942.25
2019-01-09T04:49:25.190Z,100945.78
2019-01-09T04:51:57.710Z,100942.55
2019-01-09T04:54:29.276Z,100948.20
2019-01-09T04:57:03.216Z,100940.37
2019-01-09T04:59:38.699Z,100943.36
2019-01-09T05:02:10.164Z,100941.76
2019-01-09T05:04:40.380Z,100958.36
2019-01-09T05:07:13.117Z,100949.30
2019-01-09T05:09:43.826Z,100956.38
2019-01-09T05:12:14.812Z,100959.24
2019-01-09T05:14:49.906Z,100972.00
2019-01-09T05:17:23.475Z,100953.29
2019-01-09T05:19:53.220Z,100963.63
2019-01-09T05:22:22.952Z,100965.91
2019-01-09T05:24:56.968Z,100971.78
2019-01-09T05:27:28.495Z,100980.82
2019-01-09T05:30:03.412Z,100980.29
2019-01-09T05:32:39.443Z,100978.67
2019-01-09T05:35:15.856Z,100984.09
2019-01-09T05:37:52.575Z,100977.06
2019-01-09T05:40:23.825Z,101000.59
2019-01-09T05:42:59.056Z,100987.69
2019-01-09T05:45:29.370Z,100977.06
2019-01-09T05:48:03.044Z,100980.82
2019-01-09T05:50:32.915Z,101009.78
2019-01-09T05:53:02.825Z,101000.42
2019-01-09T05:55:32.914Z,101009.29
2019-01-09T05:58:07.672Z,101008.61
2019-01-09T06:00:39.131Z,101007.01
2019-01-09T06:03:09.165Z,101006.91
2019-01-09T06:05:41.931Z,101030.37
2019-01-09T06:08:11.027Z,101017.45
2019-01-09T06:10:40.866Z,101009.03
2019-01-09T06:13:10.647Z,101018.38
2019-01-09T06:15:42.482Z,101024.94
2019-01-09T06:18:18.395Z,101021.31
2019-01-09T06:20:50.590Z,101030.06
2019-01-09T06:23:23.255Z,101043.60
2019-01-09T06:25:56.184Z,101044.17
2019-01-09T06:28:26.594Z,101045.92
2019-01-09T06:31:38.325Z,101043.89
2019-01-09T06:33:53.080Z,101050.52
2019-01-09T06:36:22.785Z,101051.81
2019-01-09T06:38:52.644Z,101055.61
2019-01-09T06:41:24.282Z,101060.92
2019-01-09T06:43:57.803Z,101066.58
2019-01-09T06:46:31.258Z,101065.45
2019-01-09T06:49:14.165Z,101075.36
2019-01-09T06:51:47.142Z,101072.52
2019-01-09T06:54:27.102Z,101080.84
2019-01-09T06:56:56.118Z,101075.77
2019-01-09T06:59:30.137Z,101082.08
2019-01-09T07:02:04.018Z,101096.97
2019-01-09T07:04:37.273Z,101094.69
2019-01-09T07:07:06.787Z,101090.62
2019-01-09T07:09:36.340Z,101107.13
2019-01-09T07:12:06.074Z,101100.58
2019-01-09T07:14:38.564Z,101095.78
2019-01-09T07:17:08.066Z,101090.49
2019-01-09T07:19:37.619Z,101109.58
2019-01-09T07:22:07.058Z,101122.36
2019-01-09T07:24:36.494Z,101117.09
2019-01-09T07:27:06.065Z,101127.36
2019-01-09T07:29:35.576Z,101132.08
2019-01-09T07:32:05.100Z,101141.88
2019-01-09T07:34:34.609Z,101129.92
2019-01-09T07:37:04.069Z,101126.27
2019-01-09T07:39:33.489Z,101139.41
2019-01-09T07:42:03.004Z,101143.19
2019-01-09T07:44:32.434Z,101163.21
2019-01-09T07:47:01.920Z,101145.37
2019-01-09T07:49:31.567Z,101145.95
2019-01-09T07:52:01.233Z,101165.80
2019-01-09T07:54:30.920Z,101160.03
2019-01-09T07:57:00.598Z,101158.84
2019-01-09T07:59:29.986Z,101188.55
2019-01-09T08:01:59.441Z,101171.91
2019-01-09T08:04:28.875Z,101178.42
2019-01-09T08:06:58.401Z,101188.55
2019-01-09T08:09:27.873Z,101195.74
2019-01-09T08:11:57.588Z,101203.52
2019-01-09T08:14:27.169Z,101212.31
2019-01-09T08:16:56.810Z,101215.59
2019-01-09T08:19:26.435Z,101211.85
2019-01-09T08:21:55.986Z,101211.08
2019-01-09T08:24:25.573Z,101218.86
2019-01-09T08:26:55.078Z,101215.77
2019-01-09T08:29:24.554Z,101231.06
2019-01-09T08:31:54.065Z,101219.44
2019-01-09T08:34:23.569Z,101221.91
2019-01-09T08:36:53.104Z,101235.09
2019-01-09T08:39:23.645Z,101234.09
2019-01-09T08:41:53.227Z,101264.88
2019-01-09T08:44:22.790Z,101254.88
2019-01-09T08:46:52.265Z,101261.88
2019-01-09T08:49:21.830Z,101258.77
2019-01-09T08:51:51.368Z,101267.03
2019-01-09T08:54:20.882Z,101268.83
2019-01-09T08:56:50.498Z,101258.67
2019-01-09T08:59:20.099Z,101279.53
2019-01-09T09:01:49.599Z,101274.39
2019-01-09T09:04:19.098Z,101283.27
2019-01-09T09:06:48.547Z,101306.56
2019-01-09T09:09:18.058Z,101289.65
2019-01-09T09:11:47.573Z,101290.66
2019-01-09T09:14:17.153Z,101304.78
2019-01-09T09:16:46.625Z,101301.69
2019-01-09T09:19:16.099Z,101290.02
2019-01-09T09:21:45.612Z,101303.59
2019-01-09T09:24:15.130Z,101323.99
2019-01-09T09:26:44.659Z,101313.33
2019-01-09T09:29:14.095Z,101329.36
2019-01-09T09:31:43.637Z,101325.00
2019-01-09T09:34:13.237Z,101334.73
2019-01-09T09:36:42.866Z,101338.91
2019-01-09T09:39:12.346Z,101317.65
2019-01-09T09:41:41.847Z,101341.86
2019-01-09T09:44:11.339Z,101347.23
2019-01-09T09:46:40.913Z,101346.19
2019-01-09T09:49:10.435Z,101351.56
2019-01-09T09:51:40.081Z,101361.03
2019-01-09T09:54:09.549Z,101352.37
2019-01-09T09:56:39.080Z,101362.93
2019-01-09T09:59:08.581Z,101356.52
2019-01-09T10:01:38.148Z,101376.14
2019-01-09T10:04:07.776Z,101357.83
2019-01-09T10:06:37.301Z,101368.23
2019-01-09T10:09:08.827Z,101385.31
2019-01-09T10:11:38.345Z,101376.21
2019-01-09T10:14:07.858Z,101378.80
2019-01-09T10:16:37.452Z,101382.00
2019-01-09T10:19:06.924Z,101380.73
2019-01-09T10:21:36.448Z,101383.34
2019-01-09T10:24:06.012Z,101366.93
2019-01-09T10:26:35.526Z,101379.50
2019-01-09T10:29:05.013Z,101393.48
2019-01-09T10:31:34.569Z,101391.77
2019-01-09T10:34:03.983Z,101391.29
2019-01-09T10:36:33.502Z,101390.14
2019-01-09T10:39:03.700Z,101403.04
2019-01-09T10:41:33.245Z,101401.62
2019-01-09T10:44:02.998Z,101427.77
2019-01-09T10:46:32.581Z,101403.56
2019-01-09T10:49:03.716Z,101408.56
2019-01-09T10:51:33.328Z,101403.59
2019-01-09T10:54:02.878Z,101403.08
2019-01-09T10:56:32.462Z,101407.48
2019-01-09T10:59:01.955Z,101416.70
2019-01-09T11:01:31.513Z,101407.38
2019-01-09T11:04:01.026Z,101410.66
2019-01-09T11:06:30.518Z,101419.39
2019-01-09T11:09:00.034Z,101411.03
2019-01-09T11:11:29.574Z,101421.06
2019-01-09T11:13:59.086Z,101424.42
2019-01-09T11:16:28.532Z,101427.25
2019-01-09T11:18:58.085Z,101426.48
2019-01-09T11:21:27.627Z,101423.68
2019-01-09T11:23:57.153Z,101425.17
2019-01-09T11:26:26.601Z,101424.39
2019-01-09T11:28:56.223Z,101432.16
2019-01-09T11:31:25.716Z,101422.97
2019-01-09T11:33:55.209Z,101443.16
2019-01-09T11:36:24.748Z,101434.79
2019-01-09T11:38:55.896Z,101433.84
2019-01-09T11:41:29.881Z,101434.16
2019-01-09T11:49:52.754Z,101446.33
2019-01-09T11:52:37.264Z,101446.06
2019-01-09T11:55:29.555Z,101455.35
2019-01-09T11:58:15.831Z,101452.45
2019-01-09T12:01:11.116Z,101460.72
2019-01-09T12:03:44.193Z,101459.73
2019-01-09T12:06:28.319Z,101461.30
2019-01-09T12:09:35.726Z,101459.27
2019-01-09T12:11:54.343Z,101460.20
2019-01-09T12:14:27.941Z,101473.30
2019-01-09T12:17:06.614Z,101482.80
2019-01-09T12:19:47.705Z,101470.53
2019-01-09T12:25:31.547Z,101468.98
2019-01-09T12:31:42.420Z,101474.05
2019-01-09T12:34:36.656Z,101475.55
2019-01-09T12:37:42.712Z,101490.54
2019-01-09T12:40:14.615Z,101490.84
2019-01-09T12:43:00.496Z,101493.44
2019-01-09T12:45:49.973Z,101489.97
2019-01-09T12:48:55.610Z,101501.95
2019-01-09T12:51:36.918Z,101507.92
2019-01-09T12:54:19.824Z,101508.20
2019-01-09T12:56:57.804Z,101519.92
2019-01-09T13:02:33.943Z,101528.66
2019-01-09T13:05:17.816Z,101530.32
2019-01-09T13:07:52.967Z,101529.70
2019-01-09T13:10:40.302Z,101540.86
2019-01-09T13:16:20.085Z,101555.98
2019-01-09T13:19:08.617Z,101554.53
2019-01-09T13:21:50.814Z,101554.39
2019-01-09T13:24:24.939Z,101560.12
2019-01-09T13:27:03.675Z,101567.41
2019-01-09T13:29:52.665Z,101577.75
2019-01-09T13:32:36.828Z,101578.06
2019-01-09T13:41:07.333Z,101595.87
2019-01-09T13:43:44.205Z,101609.40
2019-01-09T13:46:25.181Z,101603.30
2019-01-09T13:49:09.395Z,101610.44
2019-01-09T13:51:45.358Z,101627.28
2019-01-09T13:54:17.574Z,101615.72
2019-01-09T13:56:47.161Z,101597.73
2019-01-09T13:59:17.038Z,101629.83
2019-01-09T14:02:08.007Z,101630.69
2019-01-09T14:04:41.009Z,101633.66
2019-01-09T14:07:34.942Z,101644.00
2019-01-09T14:10:11.822Z,101645.02
2019-01-09T14:13:11.190Z,101640.39
2019-01-09T14:15:42.106Z,101647.27
2019-01-09T14:18:14.577Z,101639.73
2019-01-09T14:20:47.208Z,101655.04
2019-01-09T14:23:29.974Z,101655.36
2019-01-09T14:26:13.225Z,101662.17
2019-01-09T14:29:01.659Z,101664.50
2019-01-09T14:31:33.710Z,101658.94
2019-01-09T14:34:06.113Z,101670.73
2019-01-09T14:39:33.994Z,101675.28
2019-01-09T14:42:14.939Z,101678.25
2019-01-09T14:45:07.540Z,101675.78
2019-01-09T14:47:35.663Z,101677.61
2019-01-09T14:50:21.850Z,101688.30
2019-01-09T14:53:01.168Z,101689.62
2019-01-09T14:55:38.187Z,101683.30
2019-01-09T14:58:18.949Z,101705.14
2019-01-09T15:00:53.301Z,101704.05
2019-01-09T15:03:33.867Z,101702.23
2019-01-09T15:06:09.431Z,101723.08
2019-01-09T15:08:54.992Z,101711.16
2019-01-09T15:12:04.495Z,101711.34
2019-01-09T15:14:47.957Z,101708.75
2019-01-09T15:20:43.904Z,101714.03
2019-01-09T15:26:28.071Z,101724.45
2019-01-09T15:29:43.136Z,101720.94
2019-01-09T15:32:18.258Z,101731.91
2019-01-09T15:35:06.670Z,101736.45
2019-01-09T15:37:46.280Z,101735.77
2019-01-09T15:40:39.101Z,101739.55
2019-01-09T15:43:54.529Z,101743.25
2019-01-09T15:46:29.507Z,101736.77
2019-01-09T15:48:59.716Z,101744.98
2019-01-09T15:51:36.068Z,101748.41
2019-01-09T15:54:05.693Z,101752.95
2019-01-09T15:56:35.153Z,101748.53
2019-01-09T15:59:05.298Z,101745.53
2019-01-09T16:01:35.155Z,101751.91
2019-01-09T16:04:05.287Z,101763.55
2019-01-09T16:06:35.163Z,101759.88
2019-01-09T16:09:06.195Z,101763.46
2019-01-09T16:11:41.343Z,101769.66
2019-01-09T16:14:11.716Z,101762.05
2019-01-09T16:16:41.490Z,101779.03
2019-01-09T16:19:11.240Z,101779.72
2019-01-09T16:21:45.064Z,101775.84
2019-01-09T16:24:16.240Z,101779.39
2019-01-09T16:26:46.743Z,101783.61
2019-01-09T16:29:17.282Z,101790.41
2019-01-09T16:31:48.551Z,101801.11
2019-01-09T16:34:19.948Z,101799.03
2019-01-09T16:36:51.079Z,101805.89
2019-01-09T16:39:30.522Z,101810.62
2019-01-09T16:41:55.424Z,101809.75
2019-01-09T16:44:25.781Z,101811.95
2019-01-09T16:46:57.765Z,101815.04
2019-01-09T16:49:28.189Z,101814.64
2019-01-09T16:51:58.119Z,101823.01
2019-01-09T16:54:27.680Z,101833.50
2019-01-09T16:56:57.300Z,101843.48
2019-01-09T16:59:26.932Z,101852.91
2019-01-09T17:01:56.659Z,101847.42
2019-01-09T17:04:26.439Z,101852.06
2019-01-09T17:06:56.183Z,101849.97
2019-01-09T17:09:25.696Z,101857.91
2019-01-09T17:11:55.155Z,101860.44
2019-01-09T17:14:24.838Z,101861.47
2019-01-09T17:16:54.666Z,101871.00
2019-01-09T17:19:24.344Z,101867.48
2019-01-09T17:21:53.760Z,101874.45
2019-01-09T17:24:23.722Z,101871.36
2019-01-09T17:26:53.346Z,101874.61
2019-01-09T17:29:22.941Z,101877.16
2019-01-09T17:31:52.378Z,101889.88
2019-01-09T17:34:21.809Z,101892.14
2019-01-09T17:36:51.225Z,101901.46
2019-01-09T17:39:20.698Z,101893.91
2019-01-09T17:41:50.531Z,101900.12
2019-01-09T17:53:19.310Z,101919.99
2019-01-09T17:55:48.789Z,101920.86
2019-01-09T17:58:18.271Z,101922.17
2019-01-09T18:00:48.463Z,101933.46
2019-01-09T18:03:18.020Z,101939.34
2019-01-09T18:05:49.110Z,101929.52
2019-01-09T18:11:08.389Z,101935.60
2019-01-09T18:13:37.989Z,101937.23
2019-01-09T18:16:07.508Z,101938.70
2019-01-09T18:18:37.099Z,101928.75
2019-01-09T18:21:08.238Z,101929.57
2019-01-09T18:23:38.326Z,101941.33
2019-01-09T18:26:07.832Z,101938.91
2019-01-09T18:28:39.128Z,101958.58
2019-01-09T18:31:14.683Z,101956.10
2019-01-09T18:33:47.399Z,101942.67
2019-01-09T18:36:20.024Z,101958.84
2019-01-09T18:38:52.983Z,101957.92
2019-01-09T18:41:45.533Z,101961.53
2019-01-09T18:44:18.384Z,101965.77
2019-01-09T18:47:16.267Z,101975.24
2019-01-09T18:49:55.185Z,101981.93
2019-01-09T18:52:34.296Z,101978.22
2019-01-09T18:55:04.957Z,101974.97
2019-01-09T18:57:34.524Z,101984.34
2019-01-09T19:00:07.584Z,101986.91
2019-01-09T19:02:37.437Z,101996.30
2019-01-09T19:05:06.968Z,101989.37
2019-01-09T19:07:36.469Z,101998.02
2019-01-09T19:10:18.068Z,101965.84
2019-01-09T19:12:48.001Z,101999.77
2019-01-09T19:15:17.890Z,102003.59
2019-01-09T19:17:47.596Z,102010.38
2019-01-09T19:20:17.097Z,102013.95
2019-01-09T19:22:46.652Z,102008.94
2019-01-09T19:25:17.136Z,102022.93
2019-01-09T19:27:46.584Z,102021.94
2019-01-09T19:30:26.856Z,102018.91
2019-01-09T19:32:56.418Z,102033.67
2019-01-09T19:35:26.403Z,102032.18
2019-01-09T19:37:56.085Z,102037.44
2019-01-09T19:40:25.697Z,102026.75
2019-01-09T19:42:55.229Z,102038.41
2019-01-09T19:45:24.682Z,102044.50
2019-01-09T19:47:54.184Z,102058.70
2019-01-09T19:50:24.619Z,102053.11
2019-01-09T19:52:54.246Z,102061.03
2019-01-09T19:55:23.809Z,102059.95
2019-01-09T19:57:53.280Z,102056.84
2019-01-09T20:00:24.019Z,102063.91
2019-01-09T20:02:53.741Z,102071.63
2019-01-09T20:05:23.268Z,102073.89
2019-01-09T20:07:52.799Z,102062.41
2019-01-09T20:10:26.121Z,102066.10
2019-01-09T20:12:56.058Z,102066.83
2019-01-09T20:15:25.666Z,102065.95
2019-01-09T20:17:55.150Z,102065.25
2019-01-09T20:20:24.638Z,102077.63
2019-01-09T20:22:54.119Z,102074.09
2019-01-09T20:25:24.750Z,102066.95
2019-01-09T20:27:54.221Z,102071.63
2019-01-09T20:30:26.001Z,102075.94
2019-01-09T20:32:55.494Z,102089.77
2019-01-09T20:35:24.958Z,102088.58
2019-01-09T20:37:54.701Z,102089.34
2019-01-09T20:40:24.573Z,102088.80
2019-01-09T20:42:54.186Z,102101.37
2019-01-09T20:45:23.758Z,102100.30
2019-01-09T20:47:53.297Z,102095.14
2019-01-09T20:50:25.286Z,102105.09
2019-01-09T20:52:54.787Z,102105.19
2019-01-09T20:55:26.815Z,102111.55
2019-01-09T20:57:56.438Z,102110.77
2019-01-09T21:00:27.549Z,102120.45
2019-01-09T21:02:59.445Z,102122.00
2019-01-09T21:05:31.888Z,102124.75
2019-01-09T21:08:01.539Z,102122.33
2019-01-09T21:10:31.017Z,102132.09
2019-01-09T21:13:00.550Z,102145.93
2019-01-09T21:15:30.065Z,102156.38
2019-01-09T21:17:59.600Z,102149.98
2019-01-09T21:20:29.090Z,102152.05
2019-01-09T21:22:58.577Z,102156.94
2019-01-09T21:25:28.141Z,102155.66
2019-01-09T21:28:05.444Z,102144.56
2019-01-09T21:30:34.668Z,102159.30
2019-01-09T21:33:04.124Z,102164.88
2019-01-09T21:35:33.924Z,102164.92
2019-01-09T21:38:06.494Z,102145.37
2019-01-09T21:40:35.976Z,102159.69
2019-01-09T21:43:05.451Z,102170.11
2019-01-09T21:45:34.849Z,102167.80
2019-01-09T21:48:04.256Z,102168.59
2019-01-09T21:50:33.731Z,102179.45
2019-01-09T21:53:03.169Z,102173.70
2019-01-09T21:55:32.578Z,102184.69
2019-01-09T21:58:01.990Z,102186.58
2019-01-09T22:00:33.818Z,102190.41
2019-01-09T22:03:03.315Z,102188.33
2019-01-09T22:05:32.832Z,102195.23
2019-01-09T22:08:02.396Z,102193.15
2019-01-09T22:10:33.613Z,102196.33
2019-01-09T22:13:03.082Z,102195.73
2019-01-09T22:15:32.537Z,102205.48
2019-01-09T22:18:01.991Z,102203.28
2019-01-09T22:20:31.491Z,102197.66
2019-01-09T22:23:00.974Z,102200.59
2019-01-09T22:25:30.787Z,102202.38
2019-01-09T22:28:00.256Z,102204.49
2019-01-09T22:30:29.793Z,102207.31
2019-01-09T22:32:59.191Z,102209.55
2019-01-09T22:35:28.600Z,102205.48
2019-01-09T22:37:58.003Z,102196.52
2019-01-09T22:40:27.464Z,102191.58
2019-01-09T22:42:56.877Z,102192.92
2019-01-09T22:45:26.393Z,102193.47
2019-01-09T22:47:55.840Z,102187.19
2019-01-09T22:50:25.304Z,102188.53
2019-01-09T22:52:54.733Z,102189.86
2019-01-09T22:55:24.270Z,102191.33
2019-01-09T22:57:53.689Z,102191.57
2019-01-09T23:00:34.922Z,102179.81
2019-01-09T23:03:07.487Z,102183.66
2019-01-09T23:05:38.372Z,102178.23
2019-01-09T23:08:07.838Z,102187.36
2019-01-09T23:10:37.275Z,102194.31
2019-01-09T23:13:06.906Z,102200.85
2019-01-09T23:15:36.346Z,102198.04
2019-01-09T23:18:05.764Z,102197.86
2019-01-09T23:20:35.152Z,102194.48
2019-01-09T23:23:04.639Z,102195.72
2019-01-09T23:25:34.045Z,102195.05
2019-01-09T23:28:03.551Z,102192.73
2019-01-09T23:30:32.954Z,102192.84
2019-01-09T23:33:02.421Z,102195.84
2019-01-09T23:35:31.816Z,102199.73
2019-01-09T23:38:01.260Z,102198.16
2019-01-09T23:40:30.668Z,102200.64
2019-01-09T23:43:00.104Z,102201.50
2019-01-09T23:45:29.535Z,102198.27
2019-01-09T23:47:58.973Z,102198.27
2019-01-09T23:50:28.432Z,102201.88
2019-01-09T23:52:57.846Z,102205.15
2019-01-09T23:55:27.299Z,102211.81
2019-01-09T23:57:56.777Z,102206.48
